createdAt,value
2023-04-04T00:00:44.066Z,0.54
2023-04-04T00:03:11.566Z,0.33
2023-04-04T00:05:39.065Z,0.47
2023-04-04T00:08:06.666Z,0.27
2023-04-04T00:10:34.038Z,0.26
2023-04-04T00:13:01.472Z,0.23
2023-04-04T00:15:28.843Z,0.14
2023-04-04T00:17:57.324Z,0.00
2023-04-04T00:20:24.843Z,-0.04
2023-04-04T00:22:52.193Z,0.02
2023-04-04T00:25:20.196Z,-0.04
2023-04-04T00:27:48.379Z,0.12
2023-04-04T00:30:15.932Z,0.12
2023-04-04T00:32:43.371Z,0.08
2023-04-04T00:35:10.814Z,0.13
2023-04-04T00:37:38.086Z,-0.09
2023-04-04T00:40:05.927Z,-0.09
2023-04-04T00:42:34.928Z,-0.14
2023-04-04T00:45:02.430Z,-0.40
2023-04-04T00:47:31.717Z,-0.45
2023-04-04T00:49:59.107Z,-0.45
2023-04-04T00:52:27.133Z,-0.33
2023-04-04T00:54:56.348Z,-0.42
2023-04-04T00:57:24.590Z,-0.41
2023-04-04T00:59:52.136Z,-0.21
2023-04-04T01:02:19.441Z,-0.27
2023-04-04T01:04:47.289Z,-0.29
2023-04-04T01:07:14.659Z,-0.26
2023-04-04T01:09:42.152Z,-0.29
2023-04-04T01:12:09.494Z,-0.29
2023-04-04T01:14:37.036Z,-0.37
2023-04-04T01:17:04.401Z,-0.41
2023-04-04T01:19:38.246Z,-0.52
2023-04-04T01:22:06.873Z,-0.50
2023-04-04T01:24:35.533Z,-0.47
2023-04-04T01:27:03.391Z,-0.55
2023-04-04T01:29:30.576Z,-0.53
2023-04-04T01:32:08.459Z,-0.54
2023-04-04T01:35:21.540Z,-0.46
2023-04-04T01:38:06.280Z,-0.50
2023-04-04T01:40:35.634Z,-0.55
2023-04-04T01:43:03.320Z,-0.48
2023-04-04T01:45:30.969Z,-0.59
2023-04-04T01:47:58.366Z,-0.55
2023-04-04T01:50:26.664Z,-0.59
2023-04-04T01:52:54.260Z,-0.67
2023-04-04T01:55:21.939Z,-0.64
2023-04-04T01:57:49.349Z,-0.73
2023-04-04T02:00:17.295Z,-1.02
2023-04-04T02:02:44.960Z,-0.99
2023-04-04T02:05:12.548Z,-0.95
2023-04-04T02:07:40.065Z,-1.05
2023-04-04T02:10:07.989Z,-0.90
2023-04-04T02:15:28.539Z,-0.99
2023-04-04T02:17:56.000Z,-0.78
2023-04-04T02:20:23.411Z,-0.90
2023-04-04T02:22:54.794Z,-0.81
2023-04-04T02:25:25.645Z,-1.12
2023-04-04T02:27:52.696Z,-1.16
2023-04-04T02:30:20.008Z,-1.12
2023-04-04T02:32:47.452Z,-1.04
2023-04-04T02:35:15.637Z,-1.02
2023-04-04T02:37:46.353Z,-1.17
2023-04-04T02:40:13.983Z,-1.11
2023-04-04T02:42:45.092Z,-1.06
2023-04-04T02:45:14.447Z,-1.24
2023-04-04T02:47:42.979Z,-1.16
2023-04-04T02:50:11.379Z,-1.17
2023-04-04T02:52:39.115Z,-1.09
2023-04-04T02:55:07.677Z,-1.20
2023-04-04T02:57:35.267Z,-1.19
2023-04-04T03:00:05.645Z,-1.19
2023-04-04T03:02:33.141Z,-1.15
2023-04-04T03:05:00.400Z,-1.20
2023-04-04T03:07:27.836Z,-1.19
2023-04-04T03:09:55.137Z,-1.20
2023-04-04T03:12:22.493Z,-1.25
2023-04-04T03:14:49.884Z,-1.30
2023-04-04T03:17:18.361Z,-1.24
2023-04-04T03:19:45.810Z,-1.26
2023-04-04T03:22:13.257Z,-1.34
2023-04-04T03:24:40.607Z,-1.35
2023-04-04T03:27:08.212Z,-1.37
2023-04-04T03:29:35.584Z,-1.62
2023-04-04T03:32:03.064Z,-1.57
2023-04-04T03:34:31.971Z,-1.71
2023-04-04T03:36:59.460Z,-1.64
2023-04-04T03:39:32.929Z,-1.75
2023-04-04T03:42:00.442Z,-1.71
2023-04-04T03:44:27.782Z,-1.79
2023-04-04T03:46:55.145Z,-1.75
2023-04-04T03:49:22.478Z,-1.83
2023-04-04T03:51:50.136Z,-1.92
2023-04-04T03:54:17.713Z,-1.89
2023-04-04T03:56:45.002Z,-1.88
2023-04-04T03:59:12.747Z,-1.91
2023-04-04T04:01:40.183Z,-1.92
2023-04-04T04:04:08.070Z,-2.00
2023-04-04T04:06:35.505Z,-1.89
2023-04-04T04:09:03.446Z,-1.88
2023-04-04T04:11:30.878Z,-1.90
2023-04-04T04:13:58.184Z,-1.91
2023-04-04T04:16:25.593Z,-1.86
2023-04-04T04:18:53.024Z,-1.92
2023-04-04T04:21:20.391Z,-1.80
2023-04-04T04:23:47.956Z,-1.75
2023-04-04T04:26:15.674Z,-1.82
2023-04-04T04:28:43.110Z,-1.78
2023-04-04T04:31:10.739Z,-1.85
2023-04-04T04:33:38.169Z,-1.84
2023-04-04T04:36:07.247Z,-1.81
2023-04-04T04:38:34.447Z,-1.71
2023-04-04T04:41:02.086Z,-1.78
2023-04-04T04:43:29.517Z,-1.87
2023-04-04T04:45:57.151Z,-1.84
2023-04-04T04:48:24.486Z,-1.95
2023-04-04T04:50:52.020Z,-2.04
2023-04-04T04:53:19.384Z,-2.03
2023-04-04T04:55:46.894Z,-1.83
2023-04-04T04:58:17.128Z,-1.91
2023-04-04T05:00:44.524Z,-1.97
2023-04-04T05:03:12.021Z,-1.99
2023-04-04T05:05:39.416Z,-1.90
2023-04-04T05:08:07.139Z,-1.88
2023-04-04T05:10:34.460Z,-1.98
2023-04-04T05:13:02.085Z,-2.00
2023-04-04T05:15:29.415Z,-2.06
2023-04-04T05:17:57.556Z,-2.04
2023-04-04T05:20:25.034Z,-1.90
2023-04-04T05:22:52.445Z,-1.84
2023-04-04T05:25:19.568Z,-1.79
2023-04-04T05:27:50.067Z,-1.79
2023-04-04T05:30:17.127Z,-1.80
2023-04-04T05:32:47.235Z,-1.79
2023-04-04T05:35:14.658Z,-1.77
2023-04-04T05:37:42.664Z,-1.72
2023-04-04T05:40:10.443Z,-1.73
2023-04-04T05:42:38.160Z,-1.76
2023-04-04T05:45:06.278Z,-1.74
2023-04-04T05:47:33.627Z,-1.70
2023-04-04T05:50:01.597Z,-1.71
2023-04-04T05:52:28.910Z,-1.57
2023-04-04T05:54:56.263Z,-1.52
2023-04-04T05:57:24.280Z,-1.43
2023-04-04T05:59:52.701Z,-1.51
2023-04-04T06:02:20.181Z,-1.38
2023-04-04T06:04:47.609Z,-1.35
2023-04-04T06:07:15.106Z,-1.31
2023-04-04T06:09:42.932Z,-1.26
2023-04-04T06:12:10.546Z,-1.17
2023-04-04T06:14:38.115Z,-1.17
2023-04-04T06:17:05.533Z,-1.04
2023-04-04T06:19:32.936Z,-0.92
2023-04-04T06:22:00.262Z,-0.84
2023-04-04T06:24:27.313Z,-0.80
2023-04-04T06:26:54.806Z,-0.72
2023-04-04T06:29:22.132Z,-0.74
2023-04-04T06:31:50.044Z,-0.56
2023-04-04T06:34:17.116Z,-0.58
2023-04-04T06:36:44.065Z,-0.59
2023-04-04T06:39:11.664Z,-0.43
2023-04-04T06:41:38.972Z,-0.38
2023-04-04T06:44:06.383Z,-0.14
2023-04-04T06:46:34.382Z,-0.03
2023-04-04T06:49:01.806Z,0.04
2023-04-04T06:51:28.903Z,0.16
2023-04-04T06:54:01.149Z,0.25
2023-04-04T06:56:28.510Z,0.31
2023-04-04T06:58:56.288Z,0.36
2023-04-04T07:01:23.774Z,0.54
2023-04-04T07:03:54.474Z,0.56
2023-04-04T07:06:25.933Z,0.59
2023-04-04T07:08:53.488Z,0.81
2023-04-04T07:11:23.747Z,1.02
2023-04-04T07:13:51.127Z,1.08
2023-04-04T07:16:18.758Z,1.21
2023-04-04T07:18:46.176Z,1.28
2023-04-04T07:21:13.674Z,1.35
2023-04-04T07:23:41.046Z,1.53
2023-04-04T07:26:09.317Z,1.55
2023-04-04T07:28:36.914Z,1.72
2023-04-04T07:31:04.272Z,1.78
2023-04-04T07:33:32.403Z,2.04
2023-04-04T07:36:02.835Z,1.98
2023-04-04T07:38:30.375Z,2.24
2023-04-04T07:40:57.679Z,2.16
2023-04-04T07:43:25.135Z,2.37
2023-04-04T07:45:54.158Z,2.51
2023-04-04T07:48:22.993Z,2.72
2023-04-04T07:50:50.506Z,3.09
2023-04-04T07:53:17.852Z,3.19
2023-04-04T07:55:45.340Z,3.11
2023-04-04T07:58:12.743Z,3.38
2023-04-04T08:00:40.450Z,3.45
2023-04-04T08:03:08.054Z,3.41
2023-04-04T08:05:35.533Z,3.65
2023-04-04T08:08:02.826Z,3.92
2023-04-04T08:10:30.508Z,3.70
2023-04-04T08:12:58.115Z,3.72
2023-04-04T08:15:25.831Z,3.79
2023-04-04T08:17:53.556Z,3.89
2023-04-04T08:20:20.829Z,4.02
2023-04-04T08:22:48.430Z,4.12
2023-04-04T08:25:15.879Z,4.27
2023-04-04T08:27:45.013Z,4.34
2023-04-04T08:30:14.314Z,4.62
2023-04-04T08:32:42.474Z,4.26
2023-04-04T08:35:09.832Z,4.24
2023-04-04T08:37:37.354Z,4.66
2023-04-04T08:40:05.669Z,4.72
2023-04-04T08:42:37.213Z,5.01
2023-04-04T08:45:05.353Z,4.75
2023-04-04T08:47:33.970Z,4.81
2023-04-04T08:50:04.946Z,5.07
2023-04-04T08:52:34.651Z,4.93
2023-04-04T08:55:06.297Z,5.34
2023-04-04T08:57:33.940Z,4.96
2023-04-04T09:00:06.231Z,5.19
2023-04-04T09:02:58.261Z,5.10
2023-04-04T09:05:26.301Z,5.25
2023-04-04T09:07:54.951Z,5.11
2023-04-04T09:10:23.493Z,5.31
2023-04-04T09:12:55.503Z,5.30
2023-04-04T09:15:24.976Z,5.70
2023-04-04T09:17:52.285Z,5.34
2023-04-04T09:20:41.569Z,5.76
2023-04-04T09:23:18.693Z,6.30
2023-04-04T09:28:22.133Z,6.18
2023-04-04T09:30:50.773Z,6.04
2023-04-04T09:33:20.451Z,6.16
2023-04-04T09:35:55.375Z,6.10
2023-04-04T09:38:24.252Z,6.02
2023-04-04T09:40:52.687Z,6.76
2023-04-04T09:43:22.451Z,6.79
2023-04-04T09:45:50.842Z,6.69
2023-04-04T09:48:32.714Z,6.87
2023-04-04T09:51:00.576Z,6.88
2023-04-04T09:53:28.306Z,6.88
2023-04-04T09:55:57.502Z,7.15
2023-04-04T09:58:28.112Z,7.46
2023-04-04T10:00:59.489Z,7.03
2023-04-04T10:03:27.800Z,7.48
2023-04-04T10:06:07.429Z,7.59
2023-04-04T10:08:35.686Z,7.43
2023-04-04T10:11:12.051Z,7.56
2023-04-04T10:13:42.166Z,7.80
2023-04-04T10:16:10.948Z,7.77
2023-04-04T10:18:39.330Z,7.58
2023-04-04T10:23:39.598Z,7.76
2023-04-04T10:26:07.668Z,8.30
2023-04-04T10:28:35.161Z,7.61
2023-04-04T10:31:07.129Z,7.75
2023-04-04T10:34:04.831Z,8.37
2023-04-04T10:36:44.928Z,7.80
2023-04-04T10:39:26.571Z,8.09
2023-04-04T10:41:56.410Z,8.37
2023-04-04T10:44:33.772Z,8.37
2023-04-04T10:47:26.121Z,8.57
2023-04-04T10:49:53.790Z,8.70
2023-04-04T10:52:24.103Z,8.63
2023-04-04T10:54:57.850Z,8.92
2023-04-04T10:57:25.419Z,8.86
2023-04-04T10:59:58.985Z,9.21
2023-04-04T11:02:53.390Z,9.02
2023-04-04T11:05:21.007Z,8.99
2023-04-04T11:08:04.508Z,9.50
2023-04-04T11:10:44.659Z,9.38
2023-04-04T11:13:13.752Z,9.47
2023-04-04T11:16:00.401Z,9.19
2023-04-04T11:18:39.397Z,10.03
2023-04-04T11:21:14.445Z,10.22
2023-04-04T11:23:59.202Z,9.27
2023-04-04T11:26:26.737Z,9.37
2023-04-04T11:28:57.828Z,9.95
2023-04-04T11:31:33.708Z,10.54
2023-04-04T11:34:11.772Z,9.95
2023-04-04T11:36:39.875Z,10.25
2023-04-04T11:39:26.221Z,9.48
2023-04-04T11:42:10.204Z,9.86
2023-04-04T11:45:10.617Z,9.93
2023-04-04T11:47:40.004Z,10.69
2023-04-04T11:50:10.983Z,10.90
2023-04-04T11:52:41.078Z,10.34
2023-04-04T11:55:19.063Z,10.23
2023-04-04T11:57:54.739Z,10.40
2023-04-04T12:00:33.353Z,9.96
2023-04-04T12:03:00.738Z,9.73
2023-04-04T12:05:28.951Z,10.23
2023-04-04T12:07:56.224Z,10.97
2023-04-04T12:10:23.205Z,10.86
2023-04-04T12:12:50.400Z,10.68
2023-04-04T12:15:18.059Z,11.55
2023-04-04T12:17:48.660Z,10.68
2023-04-04T12:20:24.048Z,10.57
2023-04-04T12:22:54.694Z,11.38
2023-04-04T12:25:28.457Z,11.49
2023-04-04T12:27:56.561Z,11.23
2023-04-04T12:30:24.669Z,11.16
2023-04-04T12:32:52.502Z,10.14
2023-04-04T12:35:19.975Z,11.82
2023-04-04T12:38:10.884Z,11.07
2023-04-04T12:40:39.499Z,11.74
2023-04-04T12:43:10.351Z,11.14
2023-04-04T12:45:41.655Z,12.24
2023-04-04T12:48:12.825Z,11.75
2023-04-04T12:51:12.420Z,11.63
2023-04-04T12:53:57.124Z,11.77
2023-04-04T12:56:28.067Z,12.68
2023-04-04T12:59:03.336Z,12.47
2023-04-04T13:01:34.856Z,11.48
2023-04-04T13:04:05.042Z,10.71
2023-04-04T13:06:33.349Z,10.83
2023-04-04T13:09:01.220Z,12.06
2023-04-04T13:12:02.277Z,11.99
2023-04-04T13:15:01.973Z,12.61
2023-04-04T13:17:46.067Z,12.23
2023-04-04T13:20:15.728Z,13.13
2023-04-04T13:22:43.962Z,12.56
2023-04-04T13:25:11.915Z,12.37
2023-04-04T13:27:39.240Z,12.01
2023-04-04T13:30:10.133Z,12.57
2023-04-04T13:32:38.594Z,13.02
2023-04-04T13:35:06.567Z,12.36
2023-04-04T13:37:33.743Z,12.89
2023-04-04T13:40:01.163Z,12.45
2023-04-04T13:42:31.552Z,12.22
2023-04-04T13:44:59.064Z,12.91
2023-04-04T13:47:28.612Z,13.06
2023-04-04T13:49:55.992Z,13.56
2023-04-04T13:52:23.813Z,12.70
2023-04-04T13:54:51.316Z,13.19
2023-04-04T13:57:18.853Z,12.88
2023-04-04T13:59:46.580Z,12.58
2023-04-04T14:02:13.974Z,13.54
2023-04-04T14:04:41.855Z,12.96
2023-04-04T14:07:10.000Z,12.36
2023-04-04T14:09:37.827Z,13.29
2023-04-04T14:12:05.255Z,12.86
2023-04-04T14:14:35.472Z,12.63
2023-04-04T14:17:03.796Z,12.47
2023-04-04T14:19:31.216Z,13.12
2023-04-04T14:21:58.217Z,13.41
2023-04-04T14:24:26.197Z,13.13
2023-04-04T14:26:53.263Z,13.06
2023-04-04T14:29:22.240Z,13.03
2023-04-04T14:31:49.759Z,13.07
2023-04-04T14:34:17.267Z,13.00
2023-04-04T14:36:44.921Z,13.34
2023-04-04T14:39:12.916Z,13.17
2023-04-04T14:41:40.083Z,13.43
2023-04-04T14:44:08.683Z,13.10
2023-04-04T14:46:36.524Z,13.39
2023-04-04T14:49:06.387Z,13.21
2023-04-04T14:51:34.183Z,13.09
2023-04-04T14:54:01.475Z,12.89
2023-04-04T14:56:31.398Z,13.11
2023-04-04T14:59:00.059Z,13.04
2023-04-04T15:01:27.569Z,13.39
2023-04-04T15:03:55.858Z,13.96
2023-04-04T15:06:23.235Z,13.92
2023-04-04T15:08:50.525Z,13.25
2023-04-04T15:11:18.076Z,13.04
2023-04-04T15:13:48.182Z,13.71
2023-04-04T15:16:17.576Z,13.63
2023-04-04T15:18:45.073Z,13.06
2023-04-04T15:21:12.362Z,13.61
2023-04-04T15:23:42.239Z,13.28
2023-04-04T15:26:09.422Z,12.85
2023-04-04T15:28:36.839Z,13.33
2023-04-04T15:31:04.085Z,13.00
2023-04-04T15:33:31.407Z,13.23
2023-04-04T15:35:58.842Z,13.73
2023-04-04T15:38:26.451Z,13.67
2023-04-04T15:40:53.848Z,13.25
2023-04-04T15:43:21.253Z,13.11
2023-04-04T15:45:48.314Z,13.48
2023-04-04T15:48:15.627Z,13.23
2023-04-04T15:50:42.910Z,13.00
2023-04-04T15:53:10.507Z,13.43
2023-04-04T15:55:37.757Z,13.43
2023-04-04T15:58:07.388Z,13.14
2023-04-04T16:00:34.520Z,12.89
2023-04-04T16:03:01.807Z,13.55
2023-04-04T16:05:29.073Z,12.75
2023-04-04T16:07:57.263Z,12.85
2023-04-04T16:10:24.645Z,12.91
2023-04-04T16:12:51.763Z,13.59
2023-04-04T16:15:19.552Z,13.70
2023-04-04T16:17:47.211Z,13.36
2023-04-04T16:20:14.849Z,13.35
2023-04-04T16:22:42.619Z,13.39
2023-04-04T16:25:10.029Z,13.28
2023-04-04T16:27:37.528Z,13.42
2023-04-04T16:30:05.228Z,13.37
2023-04-04T16:32:34.379Z,12.53
2023-04-04T16:35:01.931Z,13.01
2023-04-04T16:37:29.353Z,12.73
2023-04-04T16:40:00.188Z,12.39
2023-04-04T16:42:28.048Z,12.75
2023-04-04T16:44:55.526Z,12.45
2023-04-04T16:47:22.555Z,12.53
2023-04-04T16:49:50.007Z,12.52
2023-04-04T16:52:17.316Z,12.04
2023-04-04T16:54:45.038Z,11.91
2023-04-04T16:57:12.541Z,11.75
2023-04-04T16:59:40.022Z,11.54
2023-04-04T17:02:08.339Z,11.92
2023-04-04T17:04:36.998Z,12.07
2023-04-04T17:07:05.450Z,11.96
2023-04-04T17:09:33.784Z,12.23
2023-04-04T17:12:01.476Z,12.32
2023-04-04T17:14:29.342Z,12.06
2023-04-04T17:17:03.647Z,11.83
2023-04-04T17:19:31.853Z,11.46
2023-04-04T17:21:59.827Z,11.05
2023-04-04T17:24:27.694Z,11.11
2023-04-04T17:26:57.198Z,10.96
2023-04-04T17:29:27.074Z,10.69
2023-04-04T17:31:56.222Z,10.54
2023-04-04T17:34:24.234Z,10.62
2023-04-04T17:36:52.998Z,10.11
2023-04-04T17:39:20.477Z,10.00
2023-04-04T17:41:48.838Z,9.87
2023-04-04T17:44:20.977Z,9.66
2023-04-04T17:46:55.443Z,9.76
2023-04-04T17:49:23.721Z,9.33
2023-04-04T17:51:51.397Z,9.32
2023-04-04T17:54:23.167Z,9.79
2023-04-04T17:56:50.833Z,9.47
2023-04-04T17:59:18.990Z,9.90
2023-04-04T18:01:46.972Z,9.11
2023-04-04T18:04:14.713Z,9.43
2023-04-04T18:06:44.779Z,9.44
2023-04-04T18:09:13.839Z,8.76
2023-04-04T18:11:44.895Z,9.17
2023-04-04T18:14:12.245Z,8.97
2023-04-04T18:16:41.006Z,8.81
2023-04-04T18:19:10.004Z,8.68
2023-04-04T18:21:38.582Z,8.52
2023-04-04T18:24:08.111Z,8.51
2023-04-04T18:26:35.246Z,8.15
2023-04-04T18:29:02.864Z,7.99
2023-04-04T18:31:30.363Z,7.88
2023-04-04T18:33:57.341Z,7.70
2023-04-04T18:36:24.691Z,7.51
2023-04-04T18:38:51.915Z,7.38
2023-04-04T18:41:20.580Z,7.43
2023-04-04T18:43:47.655Z,7.39
2023-04-04T18:46:15.374Z,7.55
2023-04-04T18:48:42.891Z,7.61
2023-04-04T18:51:09.960Z,6.79
2023-04-04T18:53:37.375Z,6.79
2023-04-04T18:56:04.704Z,6.90
2023-04-04T18:58:32.991Z,6.71
2023-04-04T19:01:03.118Z,6.95
2023-04-04T19:03:43.974Z,6.91
2023-04-04T19:06:12.780Z,6.87
2023-04-04T19:08:41.650Z,6.59
2023-04-04T19:11:10.732Z,6.52
2023-04-04T19:13:42.806Z,6.22
2023-04-04T19:16:09.758Z,6.30
2023-04-04T19:18:36.830Z,6.20
2023-04-04T19:21:05.642Z,5.91
2023-04-04T19:23:33.230Z,5.85
2023-04-04T19:26:02.406Z,5.71
2023-04-04T19:28:30.060Z,5.72
2023-04-04T19:30:57.004Z,5.75
2023-04-04T19:33:26.712Z,5.66
2023-04-04T19:36:02.475Z,5.32
2023-04-04T19:38:35.228Z,4.94
2023-04-04T19:41:09.036Z,5.19
2023-04-04T19:43:37.301Z,5.16
2023-04-04T19:46:10.881Z,5.16
2023-04-04T19:48:46.028Z,5.19
2023-04-04T19:51:38.888Z,5.08
2023-04-04T19:54:09.255Z,4.82
2023-04-04T19:56:36.660Z,4.59
2023-04-04T19:59:08.055Z,4.52
2023-04-04T20:01:40.542Z,4.52
2023-04-04T20:04:12.188Z,4.52
2023-04-04T20:06:40.072Z,4.74
2023-04-04T20:09:31.324Z,4.52
2023-04-04T20:11:58.664Z,4.42
2023-04-04T20:14:26.075Z,4.37
2023-04-04T20:16:53.913Z,4.31
2023-04-04T20:19:29.173Z,4.01
2023-04-04T20:21:56.766Z,4.23
2023-04-04T20:24:23.921Z,4.29
2023-04-04T20:26:52.390Z,3.73
2023-04-04T20:29:24.584Z,3.83
2023-04-04T20:31:59.191Z,3.79
2023-04-04T20:34:49.832Z,3.48
2023-04-04T20:37:36.145Z,3.45
2023-04-04T20:40:13.264Z,3.41
2023-04-04T20:42:41.424Z,3.47
2023-04-04T20:45:32.906Z,3.51
2023-04-04T20:48:06.768Z,3.68
2023-04-04T20:50:34.750Z,3.41
2023-04-04T20:53:04.796Z,3.54
2023-04-04T20:55:34.367Z,3.67
2023-04-04T20:58:26.700Z,3.47
2023-04-04T21:00:54.150Z,3.47
2023-04-04T21:03:28.502Z,3.63
2023-04-04T21:06:16.721Z,3.54
2023-04-04T21:08:53.094Z,3.46
2023-04-04T21:11:30.189Z,3.37
2023-04-04T21:16:27.779Z,3.27
2023-04-04T21:19:00.283Z,3.15
2023-04-04T21:21:28.577Z,3.02
2023-04-04T21:23:58.948Z,2.79
2023-04-04T21:26:34.053Z,2.70
2023-04-04T21:29:25.683Z,2.70
2023-04-04T21:31:55.626Z,2.49
2023-04-04T21:34:26.462Z,2.64
2023-04-04T21:36:57.071Z,2.65
2023-04-04T21:39:28.916Z,2.46
2023-04-04T21:42:04.119Z,2.31
2023-04-04T21:44:32.872Z,2.05
2023-04-04T21:47:00.678Z,2.31
2023-04-04T21:49:28.098Z,2.52
2023-04-04T21:51:55.439Z,2.45
2023-04-04T21:54:23.489Z,2.51
2023-04-04T21:56:50.905Z,2.56
2023-04-04T21:59:18.310Z,2.58
2023-04-04T22:01:45.826Z,2.18
2023-04-04T22:04:13.294Z,1.87
2023-04-04T22:06:40.759Z,1.86
2023-04-04T22:09:08.186Z,2.03
2023-04-04T22:11:38.879Z,2.03
2023-04-04T22:14:07.525Z,2.10
2023-04-04T22:16:40.112Z,2.11
2023-04-04T22:19:10.939Z,1.91
2023-04-04T22:21:39.013Z,1.86
2023-04-04T22:24:06.812Z,1.97
2023-04-04T22:26:34.072Z,1.85
2023-04-04T22:29:04.076Z,1.91
2023-04-04T22:31:34.558Z,1.77
2023-04-04T22:34:03.501Z,1.76
2023-04-04T22:36:31.279Z,1.74
2023-04-04T22:38:58.723Z,1.69
2023-04-04T22:41:28.181Z,1.65
2023-04-04T22:43:56.527Z,1.50
2023-04-04T22:46:25.816Z,1.54
2023-04-04T22:49:04.822Z,1.59
2023-04-04T22:51:44.076Z,1.58
2023-04-04T22:54:16.132Z,1.65
2023-04-04T22:56:43.908Z,1.66
2023-04-04T22:59:11.419Z,1.68
2023-04-04T23:01:39.055Z,1.68
2023-04-04T23:04:06.664Z,1.70
2023-04-04T23:06:34.164Z,1.72
2023-04-04T23:09:03.140Z,1.65
2023-04-04T23:11:30.696Z,1.76
2023-04-04T23:16:29.174Z,1.60
2023-04-04T23:18:57.153Z,1.66
2023-04-04T23:21:25.111Z,1.53
2023-04-04T23:23:52.532Z,1.53
2023-04-04T23:26:19.874Z,1.33
2023-04-04T23:28:46.842Z,1.41
2023-04-04T23:31:14.924Z,1.38
2023-04-04T23:33:42.997Z,1.48
2023-04-04T23:36:10.427Z,1.37
2023-04-04T23:38:37.822Z,1.41
2023-04-04T23:41:05.345Z,1.17
2023-04-04T23:43:33.011Z,1.10
2023-04-04T23:46:00.449Z,1.11
2023-04-04T23:48:28.361Z,1.08
2023-04-04T23:50:56.793Z,1.01
2023-04-04T23:53:24.741Z,0.93
2023-04-04T23:55:51.772Z,1.11
2023-04-04T23:58:19.108Z,1.20
